Time;durP1;ratioP1;P1;durP2;ratioP2;P2;SDS_P1;SDS_P2;PMS_P1;PMS_P2;Temp;Humidity;BMP_temperature;BMP_pressure;BME280_temperature;BME280_humidity;BME280_pressure;Samples;Min_cycle;Max_cycle;Signal;HPM_P1;HPM_P2
2021/04/19 00:02:20;;;;;;;22.63;13.10;;;6.70;99.90;;;;;;5020758;28;20456;-51
2021/04/19 00:04:46;;;;;;;24.90;11.60;;;6.70;99.90;;;;;;5031663;28;20670;-50
2021/04/19 00:07:13;;;;;;;22.57;12.80;;;6.60;99.90;;;;;;5030153;28;20494;-50
2021/04/19 00:09:39;;;;;;;20.90;13.20;;;6.70;99.90;;;;;;5030802;28;20476;-50
2021/04/19 00:12:09;;;;;;;21.20;11.77;;;6.70;99.90;;;;;;5031485;28;20862;-50
2021/04/19 00:14:35;;;;;;;22.23;13.50;;;6.70;99.90;;;;;;5027854;28;20468;-50
2021/04/19 00:17:02;;;;;;;21.37;11.67;;;6.70;99.90;;;;;;5013071;28;20445;-50
2021/04/19 00:19:28;;;;;;;18.47;11.33;;;6.70;99.90;;;;;;5027901;28;20453;-50
2021/04/19 00:21:55;;;;;;;23.17;12.93;;;6.70;99.90;;;;;;5031470;28;20446;-50
2021/04/19 00:24:21;;;;;;;22.23;12.90;;;6.70;99.90;;;;;;5021229;28;20488;-50
2021/04/19 00:26:48;;;;;;;20.47;12.27;;;6.70;99.90;;;;;;5019584;28;20445;-49
2021/04/19 00:29:15;;;;;;;19.53;12.47;;;6.50;99.90;;;;;;5034728;28;20459;-50
2021/04/19 00:31:42;;;;;;;20.20;12.73;;;6.30;99.90;;;;;;5033300;28;20558;-49
2021/04/19 00:34:08;;;;;;;20.93;13.60;;;6.20;99.90;;;;;;5034887;28;20479;-50
2021/04/19 00:36:34;;;;;;;22.30;14.33;;;6.10;99.90;;;;;;5034666;28;20456;-49
2021/04/19 00:39:01;;;;;;;22.90;13.40;;;6.00;99.90;;;;;;5034726;28;20448;-50
2021/04/19 00:41:28;;;;;;;22.30;13.10;;;6.20;99.90;;;;;;5033391;28;20448;-50
2021/04/19 00:43:55;;;;;;;19.27;12.73;;;6.20;99.90;;;;;;5033078;28;20497;-49
2021/04/19 00:46:22;;;;;;;20.20;12.67;;;6.20;99.90;;;;;;5026440;28;20548;-50
2021/04/19 00:48:49;;;;;;;21.93;12.80;;;6.20;99.90;;;;;;5014907;28;20450;-50
2021/04/19 00:51:16;;;;;;;22.40;13.40;;;6.30;99.90;;;;;;5017435;28;20484;-50
2021/04/19 00:53:42;;;;;;;19.00;12.33;;;6.30;99.90;;;;;;5034179;28;20454;-49
2021/04/19 00:56:09;;;;;;;21.23;12.40;;;6.20;99.90;;;;;;5033074;28;20448;-50
2021/04/19 00:58:39;;;;;;;21.97;13.13;;;6.20;99.90;;;;;;5023684;28;20522;-50
2021/04/19 01:01:07;;;;;;;19.93;12.60;;;6.10;99.90;;;;;;5016684;28;21004;-50
2021/04/19 01:03:36;;;;;;;19.17;12.03;;;6.00;99.90;;;;;;5034642;28;20813;-50
2021/04/19 01:06:03;;;;;;;23.47;13.30;;;6.00;99.90;;;;;;5034168;28;20479;-49
2021/04/19 01:08:29;;;;;;;21.37;13.20;;;5.90;99.90;;;;;;5034157;28;20456;-50
2021/04/19 01:10:56;;;;;;;21.50;13.50;;;5.80;99.90;;;;;;5034334;28;20997;-50
2021/04/19 01:13:22;;;;;;;20.70;12.63;;;5.90;99.90;;;;;;5018579;28;20833;-49
2021/04/19 01:15:49;;;;;;;22.63;12.90;;;5.90;99.90;;;;;;5015513;28;21089;-49
2021/04/19 01:18:15;;;;;;;22.10;12.90;;;6.00;99.90;;;;;;5014495;28;20817;-50
2021/04/19 01:20:44;;;;;;;20.90;12.90;;;6.00;99.90;;;;;;5020781;28;20446;-49
2021/04/19 01:23:11;;;;;;;19.93;12.63;;;6.00;99.90;;;;;;5029366;28;20822;-49
2021/04/19 01:25:38;;;;;;;21.70;12.50;;;6.00;99.90;;;;;;5032797;28;20472;-50
2021/04/19 01:28:05;;;;;;;23.00;12.97;;;5.80;99.90;;;;;;5033985;28;20471;-50
2021/04/19 01:30:34;;;;;;;23.00;12.80;;;5.80;99.90;;;;;;5034013;28;20480;-49
2021/04/19 01:33:01;;;;;;;23.27;13.77;;;5.60;99.90;;;;;;5034054;28;20506;-50
2021/04/19 01:35:28;;;;;;;19.90;12.70;;;5.60;99.90;;;;;;5018425;28;20477;-49
2021/04/19 01:37:56;;;;;;;27.03;13.37;;;5.70;99.90;;;;;;5013638;28;20457;-50
2021/04/19 01:40:23;;;;;;;23.57;14.23;;;5.70;99.90;;;;;;5031565;28;20954;-50
2021/04/19 01:42:49;;;;;;;23.60;14.03;;;5.70;99.90;;;;;;5030802;28;20460;-50
2021/04/19 01:45:17;;;;;;;22.03;13.13;;;5.90;99.90;;;;;;5014325;28;20492;-50
2021/04/19 01:47:44;;;;;;;20.30;13.20;;;5.90;99.90;;;;;;5013686;28;20476;-50
2021/04/19 01:50:14;;;;;;;24.10;14.70;;;5.90;99.90;;;;;;5016983;28;20530;-50
2021/04/19 01:52:41;;;;;;;21.70;14.00;;;5.80;99.90;;;;;;5033715;28;20502;-50
2021/04/19 01:55:15;;;;;;;22.60;12.97;;;5.80;99.90;;;;;;5033631;28;20525;-50
2021/04/19 01:57:44;;;;;;;22.80;13.77;;;5.90;99.90;;;;;;5033176;28;20458;-50
2021/04/19 02:00:12;;;;;;;22.80;14.17;;;6.10;99.90;;;;;;5031980;28;20824;-50
2021/04/19 02:02:48;;;;;;;20.97;12.87;;;5.90;99.90;;;;;;5016749;28;20459;-49
2021/04/19 02:05:23;;;;;;;21.10;12.90;;;6.00;99.90;;;;;;5029256;28;21036;-50
2021/04/19 02:07:53;;;;;;;21.03;12.13;;;6.10;99.90;;;;;;5033286;28;20486;-50
2021/04/19 02:10:26;;;;;;;21.37;12.83;;;6.10;99.90;;;;;;5033115;28;20489;-50
2021/04/19 02:12:58;;;;;;;20.83;12.37;;;6.20;99.90;;;;;;5033287;28;20453;-49
2021/04/19 02:15:32;;;;;;;19.20;11.90;;;6.20;99.90;;;;;;5032379;28;20564;-49
2021/04/19 02:18:10;;;;;;;22.53;12.87;;;6.20;99.90;;;;;;5021942;28;20454;-49
2021/04/19 02:20:43;;;;;;;19.63;12.50;;;6.10;99.90;;;;;;5023031;28;20448;-50
2021/04/19 02:23:18;;;;;;;21.50;13.10;;;6.10;99.90;;;;;;5032577;28;20459;-50
2021/04/19 02:25:47;;;;;;;21.10;13.10;;;6.20;99.90;;;;;;5032814;28;20574;-50
2021/04/19 02:28:19;;;;;;;22.33;13.80;;;6.20;99.90;;;;;;5032593;28;20949;-50
2021/04/19 02:30:49;;;;;;;22.10;13.17;;;6.20;99.90;;;;;;5032724;28;20480;-50
2021/04/19 02:33:18;;;;;;;25.17;13.20;;;6.20;99.90;;;;;;5031257;28;20452;-50
2021/04/19 02:35:46;;;;;;;23.87;13.40;;;6.30;99.90;;;;;;5086708;22;20835;-52
2021/04/19 02:38:16;;;;;;;20.97;13.50;;;6.30;99.90;;;;;;5062048;28;20451;-53
2021/04/19 02:40:44;;;;;;;20.60;12.40;;;6.20;99.90;;;;;;5052828;28;20457;-52
2021/04/19 02:43:13;;;;;;;20.70;12.47;;;6.20;99.90;;;;;;5052732;28;20883;-52
2021/04/19 02:45:41;;;;;;;21.97;13.33;;;6.20;99.90;;;;;;5071039;28;21027;-52
2021/04/19 02:48:09;;;;;;;20.03;12.60;;;6.30;99.90;;;;;;5072237;28;20447;-52
2021/04/19 02:50:36;;;;;;;21.60;12.83;;;6.30;99.90;;;;;;5070969;28;20479;-52
2021/04/19 02:53:04;;;;;;;22.13;12.47;;;6.30;99.90;;;;;;5072413;28;20529;-52
2021/04/19 02:55:31;;;;;;;23.53;13.27;;;6.30;99.90;;;;;;5071985;28;20541;-52
2021/04/19 02:58:02;;;;;;;21.67;12.90;;;6.30;99.90;;;;;;5071641;28;20520;-52
2021/04/19 03:00:32;;;;;;;22.40;13.30;;;6.20;99.90;;;;;;5071946;28;20466;-52
2021/04/19 03:03:01;;;;;;;25.33;13.57;;;6.20;99.90;;;;;;5072452;28;20909;-52
2021/04/19 03:05:29;;;;;;;22.80;13.60;;;6.30;99.90;;;;;;5072499;28;20474;-52
2021/04/19 03:08:00;;;;;;;24.90;13.20;;;6.30;99.90;;;;;;5071477;28;20974;-52
2021/04/19 03:10:28;;;;;;;23.67;13.97;;;6.30;99.90;;;;;;5071690;28;20486;-52
2021/04/19 03:12:57;;;;;;;20.83;12.03;;;6.30;99.90;;;;;;5071860;28;20458;-53
2021/04/19 03:15:27;;;;;;;25.90;13.47;;;6.30;99.90;;;;;;5068903;28;20482;-52
2021/04/19 03:17:56;;;;;;;20.53;12.77;;;6.30;99.90;;;;;;5063699;28;20450;-52
2021/04/19 03:20:26;;;;;;;23.70;13.23;;;6.30;99.90;;;;;;5071839;28;20489;-52
2021/04/19 03:22:55;;;;;;;22.20;12.77;;;6.20;99.90;;;;;;5071598;28;20454;-52
2021/04/19 03:25:24;;;;;;;20.43;11.97;;;6.30;99.90;;;;;;5071443;28;21007;-52
2021/04/19 03:27:52;;;;;;;21.30;11.93;;;6.30;99.90;;;;;;5071305;28;20455;-52
2021/04/19 03:30:20;;;;;;;23.63;12.17;;;6.30;99.90;;;;;;5071421;28;20478;-53
2021/04/19 03:32:49;;;;;;;21.33;12.90;;;6.30;99.90;;;;;;5071801;28;20454;-53
2021/04/19 03:35:22;;;;;;;25.23;13.73;;;6.30;99.90;;;;;;5071496;28;20474;-52
2021/04/19 03:37:50;;;;;;;23.67;13.43;;;6.30;99.90;;;;;;5071358;28;20479;-52
2021/04/19 03:40:22;;;;;;;24.10;14.47;;;6.20;99.90;;;;;;5071719;28;20439;-52
2021/04/19 03:42:51;;;;;;;21.80;13.27;;;6.10;99.90;;;;;;5071392;28;20971;-52
2021/04/19 03:45:19;;;;;;;24.93;14.20;;;6.00;99.90;;;;;;5071731;28;20853;-52
2021/04/19 03:47:48;;;;;;;26.83;14.63;;;6.10;99.90;;;;;;5070957;28;20451;-52
2021/04/19 03:50:16;;;;;;;23.90;13.90;;;6.10;99.90;;;;;;5071537;28;20478;-52
2021/04/19 03:52:49;;;;;;;25.20;14.60;;;6.10;99.90;;;;;;5071113;28;20856;-52
2021/04/19 03:55:16;;;;;;;23.73;13.90;;;6.00;99.90;;;;;;5070883;28;20477;-52
2021/04/19 03:57:47;;;;;;;26.27;14.60;;;5.90;99.90;;;;;;5071186;28;20455;-52
2021/04/19 04:00:16;;;;;;;27.00;14.90;;;6.10;99.90;;;;;;5071551;28;20488;-52
2021/04/19 04:02:47;;;;;;;28.60;15.03;;;6.00;99.90;;;;;;5074165;28;20447;-52
2021/04/19 04:05:15;;;;;;;25.80;15.27;;;5.90;99.90;;;;;;5076024;28;20470;-52
2021/04/19 04:07:43;;;;;;;25.70;14.83;;;5.80;99.90;;;;;;5075016;28;20443;-52
2021/04/19 04:10:12;;;;;;;24.70;13.23;;;5.80;99.90;;;;;;5075696;28;20475;-52
2021/04/19 04:12:38;;;;;;;24.53;14.83;;;5.80;99.90;;;;;;5075244;28;20454;-53
2021/04/19 04:15:06;;;;;;;24.17;14.03;;;5.90;99.90;;;;;;5075005;28;20528;-52
2021/04/19 04:17:33;;;;;;;23.67;13.93;;;5.90;99.90;;;;;;5061933;28;20455;-52
2021/04/19 04:19:59;;;;;;;25.30;13.80;;;6.00;99.90;;;;;;5055139;28;20466;-52
2021/04/19 04:22:26;;;;;;;25.47;14.50;;;6.00;99.90;;;;;;5064637;28;20451;-52
2021/04/19 04:24:53;;;;;;;27.77;15.43;;;5.90;99.90;;;;;;5073965;28;20984;-52
2021/04/19 04:27:21;;;;;;;26.57;15.77;;;5.80;99.90;;;;;;5075051;28;20452;-52
2021/04/19 04:29:47;;;;;;;25.70;14.57;;;5.90;99.90;;;;;;5075031;28;20459;-52
2021/04/19 04:32:14;;;;;;;23.77;13.83;;;5.90;99.90;;;;;;5075128;28;20450;-52
2021/04/19 04:34:40;;;;;;;27.10;14.00;;;5.80;99.90;;;;;;5074379;28;20840;-52
2021/04/19 04:37:08;;;;;;;24.97;14.57;;;5.90;99.90;;;;;;5074826;28;20446;-52
2021/04/19 04:39:35;;;;;;;26.90;15.73;;;5.90;99.90;;;;;;5073314;28;20499;-52
2021/04/19 04:42:04;;;;;;;31.43;15.00;;;5.70;99.90;;;;;;5067506;28;20444;-52
2021/04/19 04:44:36;;;;;;;25.00;14.10;;;5.60;99.90;;;;;;5055101;28;20545;-52
2021/04/19 04:47:12;;;;;;;26.33;13.87;;;5.50;99.90;;;;;;5054775;28;20447;-52
2021/04/19 04:49:47;;;;;;;24.90;14.57;;;5.40;99.90;;;;;;5055122;28;20451;-53
2021/04/19 04:52:16;;;;;;;25.20;14.17;;;5.40;99.90;;;;;;5074806;28;20434;-52
2021/04/19 04:54:48;;;;;;;25.30;14.10;;;5.50;99.90;;;;;;5074673;28;20515;-52
2021/04/19 04:57:19;;;;;;;24.83;13.80;;;5.60;99.90;;;;;;5074157;28;20584;-52
2021/04/19 04:59:49;;;;;;;25.83;14.40;;;5.80;99.90;;;;;;5074262;28;20442;-52
2021/04/19 05:02:19;;;;;;;24.00;13.97;;;5.80;99.90;;;;;;5074395;28;20879;-52
2021/04/19 05:04:47;;;;;;;24.07;14.33;;;5.80;99.90;;;;;;5074567;28;20488;-52
2021/04/19 05:07:13;;;;;;;25.43;14.03;;;5.90;99.90;;;;;;5073713;28;20496;-52
2021/04/19 05:09:40;;;;;;;24.97;14.10;;;6.10;99.90;;;;;;5074453;28;20450;-53
2021/04/19 05:12:07;;;;;;;29.13;14.00;;;6.20;99.90;;;;;;5074126;28;21060;-53
2021/04/19 05:14:37;;;;;;;27.77;14.10;;;6.10;99.90;;;;;;5073217;28;20470;-52
2021/04/19 05:17:04;;;;;;;25.43;14.30;;;6.10;99.90;;;;;;5069656;28;20489;-52
2021/04/19 05:19:31;;;;;;;22.83;13.70;;;6.20;99.90;;;;;;5073698;28;20451;-52
2021/04/19 05:21:57;;;;;;;26.00;13.73;;;6.20;99.90;;;;;;5073550;28;20818;-52
2021/04/19 05:24:24;;;;;;;27.67;14.20;;;6.30;99.90;;;;;;5060429;28;20605;-52
2021/04/19 05:26:50;;;;;;;26.80;14.90;;;6.40;99.90;;;;;;5067016;28;20481;-52
2021/04/19 05:29:17;;;;;;;27.23;16.00;;;6.40;99.90;;;;;;5072651;28;20450;-52
2021/04/19 05:31:44;;;;;;;24.73;14.30;;;6.40;99.90;;;;;;5073315;28;20482;-52
2021/04/19 05:34:11;;;;;;;35.20;20.93;;;6.50;99.90;;;;;;5073546;28;20988;-52
2021/04/19 05:36:39;;;;;;;27.07;17.50;;;6.60;99.90;;;;;;5073026;28;20485;-52
2021/04/19 05:39:06;;;;;;;28.03;16.30;;;6.50;99.90;;;;;;5073073;28;20451;-52
2021/04/19 05:41:33;;;;;;;29.50;14.53;;;6.70;99.90;;;;;;5073428;28;20525;-52
2021/04/19 05:44:02;;;;;;;27.83;14.57;;;6.70;99.90;;;;;;5072962;28;20974;-52
2021/04/19 05:46:28;;;;;;;23.33;13.90;;;6.70;99.90;;;;;;5072113;28;20458;-53
2021/04/19 05:48:55;;;;;;;24.90;14.10;;;6.90;99.90;;;;;;5065982;28;20884;-52
2021/04/19 05:51:25;;;;;;;25.90;14.70;;;6.90;99.90;;;;;;5073546;28;20491;-52
2021/04/19 05:53:54;;;;;;;28.10;14.80;;;6.90;99.90;;;;;;5073362;28;20461;-52
2021/04/19 05:56:30;;;;;;;25.50;14.20;;;7.00;99.90;;;;;;5076545;28;20515;-52
2021/04/19 05:59:03;;;;;;;28.50;13.93;;;7.10;99.90;;;;;;5074777;28;20458;-52
2021/04/19 06:01:35;;;;;;;32.47;13.93;;;7.10;99.90;;;;;;5073559;28;20508;-52
2021/04/19 06:04:11;;;;;;;25.87;15.00;;;7.20;99.90;;;;;;5073367;28;20466;-52
2021/04/19 06:06:43;;;;;;;27.60;15.23;;;7.30;99.90;;;;;;5072649;28;20464;-52
2021/04/19 06:09:15;;;;;;;29.77;17.03;;;7.30;99.90;;;;;;5053040;28;20535;-52
2021/04/19 06:11:44;;;;;;;30.47;17.30;;;7.30;99.90;;;;;;5061160;28;20484;-52
2021/04/19 06:14:14;;;;;;;28.30;16.50;;;7.50;99.90;;;;;;5072227;28;20473;-52
2021/04/19 06:16:41;;;;;;;31.80;17.13;;;7.60;99.90;;;;;;5068436;28;20454;-52
2021/04/19 06:19:12;;;;;;;29.03;16.60;;;7.80;99.90;;;;;;5072315;28;20971;-52
2021/04/19 06:21:40;;;;;;;28.60;15.20;;;8.10;99.90;;;;;;5072654;28;20446;-52
2021/04/19 06:24:07;;;;;;;27.90;16.10;;;8.40;99.90;;;;;;5069643;28;20531;-53
2021/04/19 06:26:34;;;;;;;27.30;14.93;;;8.40;99.90;;;;;;5060600;28;20445;-52
2021/04/19 06:29:01;;;;;;;24.40;15.00;;;8.70;99.90;;;;;;5057114;28;20442;-52
2021/04/19 06:31:27;;;;;;;24.27;15.03;;;8.90;99.90;;;;;;5071809;28;20482;-52
2021/04/19 06:34:04;;;;;;;27.00;16.50;;;9.10;99.90;;;;;;5072691;28;20457;-53
2021/04/19 06:36:32;;;;;;;29.37;16.10;;;9.40;99.90;;;;;;5068485;28;20445;-51
2021/04/19 06:38:59;;;;;;;26.90;16.83;;;9.60;99.90;;;;;;5072279;28;20511;-52
2021/04/19 06:41:26;;;;;;;24.37;14.77;;;9.80;99.90;;;;;;5072697;28;20496;-52
2021/04/19 06:43:55;;;;;;;23.90;14.57;;;10.10;99.90;;;;;;5072362;28;20450;-53
2021/04/19 06:46:23;;;;;;;24.30;15.10;;;10.40;99.90;;;;;;5072201;28;20450;-52
2021/04/19 06:48:50;;;;;;;24.13;15.17;;;10.80;99.90;;;;;;5071541;28;20465;-53
2021/04/19 06:51:17;;;;;;;26.30;15.43;;;11.00;99.90;;;;;;5072064;28;20531;-53
2021/04/19 06:53:43;;;;;;;22.87;15.00;;;11.30;99.90;;;;;;5068343;28;20468;-54
2021/04/19 06:56:13;;;;;;;26.53;15.23;;;11.50;99.90;;;;;;5071063;28;20447;-53
2021/04/19 06:58:42;;;;;;;24.73;15.20;;;11.70;99.90;;;;;;5072014;28;20450;-53
2021/04/19 07:01:08;;;;;;;23.43;14.90;;;11.70;99.90;;;;;;5072075;28;20446;-53
2021/04/19 07:03:36;;;;;;;26.40;15.93;;;12.00;99.90;;;;;;5072322;28;20447;-53
2021/04/19 07:06:03;;;;;;;26.87;15.80;;;11.90;99.90;;;;;;5071899;28;20989;-53
2021/04/19 07:08:32;;;;;;;22.10;14.73;;;11.90;99.90;;;;;;5071582;28;20827;-52
2021/04/19 07:11:03;;;;;;;27.77;16.67;;;12.10;99.90;;;;;;5071190;28;20486;-53
2021/04/19 07:13:31;;;;;;;28.33;15.13;;;12.40;99.90;;;;;;5070539;28;20443;-52
2021/04/19 07:15:58;;;;;;;24.93;14.73;;;13.20;99.90;;;;;;5072063;28;20454;-53
2021/04/19 07:18:25;;;;;;;24.17;15.47;;;13.70;99.90;;;;;;5071616;28;20451;-53
2021/04/19 07:20:51;;;;;;;23.83;15.30;;;13.60;99.90;;;;;;5071973;28;20442;-53
2021/04/19 07:23:18;;;;;;;24.40;15.90;;;13.60;99.90;;;;;;5071880;28;20454;-53
2021/04/19 07:25:45;;;;;;;22.10;14.73;;;13.40;99.90;;;;;;5072018;28;20520;-53
2021/04/19 07:28:14;;;;;;;22.10;14.57;;;13.80;99.90;;;;;;5071000;28;20479;-53
2021/04/19 07:30:41;;;;;;;24.27;15.17;;;13.60;99.90;;;;;;5068129;28;20480;-53
2021/04/19 07:33:26;;;;;;;22.33;14.43;;;14.00;99.90;;;;;;5051850;28;20522;-53
2021/04/19 07:35:52;;;;;;;23.90;15.00;;;14.00;99.90;;;;;;5070021;28;20474;-53
2021/04/19 07:38:31;;;;;;;23.50;15.43;;;14.20;99.90;;;;;;5071418;28;20446;-53
2021/04/19 07:40:57;;;;;;;21.33;13.87;;;14.60;99.90;;;;;;5070967;28;20462;-53
2021/04/19 07:43:24;;;;;;;23.80;15.53;;;15.30;99.90;;;;;;5070291;28;20446;-53
2021/04/19 07:46:07;;;;;;;23.50;15.70;;;14.90;99.90;;;;;;5064758;28;20462;-53
2021/04/19 07:48:35;;;;;;;21.60;14.37;;;13.90;99.90;;;;;;5071670;28;20447;-53
2021/04/19 07:51:23;;;;;;;23.80;14.30;;;13.80;99.90;;;;;;5067863;28;21693;-53
2021/04/19 07:53:51;;;;;;;21.33;14.63;;;14.80;99.90;;;;;;5070438;28;20447;-53
2021/04/19 07:56:18;;;;;;;23.07;15.33;;;15.30;99.90;;;;;;5068482;28;20499;-53
2021/04/19 07:58:45;;;;;;;30.63;14.80;;;15.30;99.90;;;;;;5065294;28;20461;-54
2021/04/19 08:01:13;;;;;;;20.10;13.03;;;15.30;99.90;;;;;;5067740;28;20462;-52
2021/04/19 08:03:41;;;;;;;22.40;14.47;;;15.40;99.90;;;;;;5067723;28;20496;-53
2021/04/19 08:06:18;;;;;;;22.23;14.27;;;15.60;99.90;;;;;;5071341;28;20454;-53
2021/04/19 08:08:45;;;;;;;20.90;14.17;;;16.00;99.90;;;;;;5068166;28;20489;-53
2021/04/19 08:11:14;;;;;;;17.67;13.07;;;15.80;99.90;;;;;;5071363;28;21006;-53
2021/04/19 08:13:42;;;;;;;17.80;12.90;;;16.30;99.90;;;;;;5069819;28;20936;-53
2021/04/19 08:16:18;;;;;;;20.57;13.60;;;16.40;99.90;;;;;;5066888;28;20872;-53
2021/04/19 08:18:45;;;;;;;19.73;13.97;;;17.40;98.30;;;;;;5071084;28;20442;-54
2021/04/19 08:21:11;;;;;;;19.60;13.40;;;17.80;96.40;;;;;;5067627;28;21021;-54
2021/04/19 08:23:43;;;;;;;20.40;13.93;;;18.00;95.60;;;;;;5058952;28;20469;-54
2021/04/19 08:26:10;;;;;;;17.20;13.40;;;18.30;94.60;;;;;;5065469;28;20535;-53
2021/04/19 08:28:43;;;;;;;18.00;13.07;;;18.60;95.10;;;;;;5062977;28;20467;-53
2021/04/19 08:31:11;;;;;;;20.67;13.90;;;18.70;95.00;;;;;;5069667;28;20991;-53
2021/04/19 08:33:39;;;;;;;18.00;12.50;;;18.60;92.50;;;;;;5070788;28;20447;-52
2021/04/19 08:36:10;;;;;;;16.13;11.83;;;18.20;92.20;;;;;;5062238;28;20475;-53
2021/04/19 08:38:37;;;;;;;20.30;13.57;;;18.00;92.80;;;;;;5050986;28;20455;-53
2021/04/19 08:41:05;;;;;;;17.00;12.87;;;17.50;93.40;;;;;;5063370;28;20447;-53
2021/04/19 08:43:35;;;;;;;18.97;13.00;;;16.70;95.90;;;;;;5061465;28;20471;-53
2021/04/19 08:46:03;;;;;;;16.83;12.37;;;16.70;94.60;;;;;;5065475;28;20475;-53
2021/04/19 08:48:30;;;;;;;17.70;12.60;;;16.70;97.60;;;;;;5071433;28;20443;-53
2021/04/19 08:51:02;;;;;;;18.13;13.07;;;15.90;95.30;;;;;;5074764;28;20481;-53
2021/04/19 08:53:32;;;;;;;17.63;12.30;;;16.20;97.40;;;;;;5072129;28;20457;-53
2021/04/19 08:56:00;;;;;;;15.37;11.67;;;16.60;96.10;;;;;;5069477;28;20985;-53
2021/04/19 08:58:27;;;;;;;15.50;10.57;;;17.30;95.20;;;;;;5059387;28;20448;-53
2021/04/19 09:00:54;;;;;;;14.57;9.73;;;17.50;93.80;;;;;;5070912;28;20447;-53
2021/04/19 09:03:22;;;;;;;15.70;10.10;;;17.30;92.10;;;;;;5064495;28;20451;-53
2021/04/19 09:05:49;;;;;;;14.47;11.20;;;17.80;94.50;;;;;;5073846;28;20462;-53
2021/04/19 09:08:18;;;;;;;16.93;11.23;;;17.40;92.80;;;;;;5069332;28;20968;-53
2021/04/19 09:10:51;;;;;;;16.67;11.90;;;17.00;94.70;;;;;;5057592;28;20589;-54
2021/04/19 09:13:29;;;;;;;15.00;11.30;;;17.40;95.80;;;;;;5060710;28;20475;-54
2021/04/19 09:16:12;;;;;;;16.70;11.67;;;17.90;94.00;;;;;;5069701;28;20489;-53
2021/04/19 09:18:39;;;;;;;16.42;12.60;;;17.60;96.40;;;;;;5061900;28;21009;-53
2021/04/19 09:21:06;;;;;;;18.20;12.40;;;17.70;94.40;;;;;;5067238;28;20204;-53
2021/04/19 09:23:35;;;;;;;18.00;12.73;;;17.70;94.10;;;;;;5065767;28;20536;-53
2021/04/19 09:26:02;;;;;;;14.10;11.40;;;17.00;96.90;;;;;;5065285;28;20482;-53
2021/04/19 09:28:50;;;;;;;16.37;10.90;;;17.50;94.20;;;;;;5065496;28;20975;-53
2021/04/19 09:31:16;;;;;;;14.90;10.50;;;17.50;94.40;;;;;;5056594;28;20479;-53
2021/04/19 09:33:46;;;;;;;15.37;11.40;;;17.50;93.70;;;;;;5065254;28;20458;-52
2021/04/19 09:36:12;;;;;;;17.07;12.10;;;16.00;95.10;;;;;;5065967;28;20466;-53
2021/04/19 09:38:51;;;;;;;17.97;11.77;;;14.90;95.90;;;;;;5066924;28;20458;-53
2021/04/19 09:41:20;;;;;;;18.37;12.17;;;14.60;96.90;;;;;;5065797;28;20467;-53
2021/04/19 09:43:49;;;;;;;24.17;15.43;;;13.50;98.40;;;;;;5065328;28;21047;-53
2021/04/19 09:46:32;;;;;;;25.17;15.67;;;12.20;99.90;;;;;;5067352;28;20465;-53
2021/04/19 09:49:02;;;;;;;29.23;16.20;;;11.50;99.90;;;;;;5064472;28;20458;-52
2021/04/19 09:51:32;;;;;;;25.90;16.53;;;11.20;99.90;;;;;;5064149;28;20489;-52
2021/04/19 09:54:05;;;;;;;26.07;15.40;;;12.00;99.90;;;;;;5066875;28;20508;-52
2021/04/19 09:56:33;;;;;;;22.10;14.00;;;12.70;99.90;;;;;;5064657;28;20967;-52
2021/04/19 09:59:00;;;;;;;23.50;14.73;;;13.70;99.90;;;;;;5064492;28;20571;-52
2021/04/19 10:01:28;;;;;;;24.90;15.47;;;14.10;99.90;;;;;;5065329;28;20463;-52
2021/04/19 10:03:56;;;;;;;18.90;12.80;;;14.20;99.90;;;;;;5065170;28;20471;-52
2021/04/19 10:06:39;;;;;;;22.73;14.17;;;14.30;99.90;;;;;;5065087;28;20474;-52
2021/04/19 10:09:10;;;;;;;18.13;11.60;;;14.30;99.90;;;;;;5061618;28;20517;-52
2021/04/19 10:11:41;;;;;;;17.20;11.53;;;14.60;97.50;;;;;;5064620;28;20628;-51
2021/04/19 10:14:09;;;;;;;16.23;11.10;;;15.00;99.10;;;;;;5065203;28;21096;-52
2021/04/19 10:16:43;;;;;;;14.03;10.00;;;15.70;96.10;;;;;;5083380;22;20912;-50
2021/04/19 10:19:10;;;;;;;14.20;8.97;;;15.70;93.70;;;;;;5044252;28;20464;-50
2021/04/19 10:21:38;;;;;;;10.00;6.80;;;16.00;93.30;;;;;;5044075;28;20463;-50
2021/04/19 10:24:12;;;;;;;14.13;8.93;;;16.80;91.20;;;;;;5044125;28;20478;-50
2021/04/19 10:26:40;;;;;;;10.77;8.00;;;16.80;94.10;;;;;;5044080;28;20510;-50
2021/04/19 10:29:14;;;;;;;12.20;8.83;;;15.90;93.50;;;;;;5041135;28;20973;-50
2021/04/19 10:31:52;;;;;;;11.50;6.53;;;16.10;92.10;;;;;;5045642;28;20478;-50
2021/04/19 10:34:20;;;;;;;11.27;7.90;;;16.40;89.90;;;;;;5043819;28;20482;-50
2021/04/19 10:36:52;;;;;;;12.60;8.43;;;16.70;89.40;;;;;;5043335;28;20480;-50
2021/04/19 10:39:20;;;;;;;14.23;10.50;;;17.40;91.70;;;;;;5043623;28;20464;-51
2021/04/19 10:41:49;;;;;;;14.47;10.10;;;16.80;94.30;;;;;;5044779;28;20478;-51
2021/04/19 10:44:17;;;;;;;15.87;10.27;;;15.80;95.20;;;;;;5044480;28;20470;-51
2021/04/19 10:46:44;;;;;;;12.70;8.73;;;15.60;95.40;;;;;;5044750;28;20996;-52
2021/04/19 10:49:23;;;;;;;13.20;9.37;;;14.30;94.40;;;;;;5044600;28;20960;-51
2021/04/19 10:51:55;;;;;;;12.80;8.83;;;13.90;95.90;;;;;;5038846;28;20487;-51
2021/04/19 10:54:26;;;;;;;11.03;7.53;;;14.30;95.60;;;;;;5048984;28;20471;-51
2021/04/19 10:56:54;;;;;;;14.67;8.80;;;13.60;94.80;;;;;;5049715;28;20483;-50
2021/04/19 10:59:23;;;;;;;13.33;8.87;;;13.30;96.00;;;;;;5051028;28;20517;-51
2021/04/19 11:01:58;;;;;;;12.23;7.97;;;13.10;99.20;;;;;;5036623;28;20852;-52
2021/04/19 11:04:25;;;;;;;12.90;8.17;;;14.00;94.70;;;;;;5046914;28;20516;-52
2021/04/19 11:06:51;;;;;;;11.30;7.60;;;14.70;96.10;;;;;;5043894;28;20533;-51
2021/04/19 11:09:19;;;;;;;9.33;6.40;;;14.70;96.20;;;;;;5050211;28;20460;-51
2021/04/19 11:11:47;;;;;;;9.33;6.63;;;13.90;94.70;;;;;;5042541;28;20899;-51
2021/04/19 11:14:17;;;;;;;8.77;5.87;;;12.90;94.90;;;;;;5049276;28;20459;-50
2021/04/19 11:16:56;;;;;;;9.87;6.87;;;13.10;96.20;;;;;;5040440;28;20491;-50
2021/04/19 11:19:40;;;;;;;13.80;7.53;;;13.00;95.80;;;;;;5050809;28;20464;-50
2021/04/19 11:22:27;;;;;;;11.17;7.70;;;13.40;97.20;;;;;;5045281;28;20459;-51
2021/04/19 11:24:54;;;;;;;10.97;7.40;;;13.20;98.60;;;;;;5043231;28;20459;-50
2021/04/19 11:27:25;;;;;;;9.13;6.67;;;13.20;96.60;;;;;;5050448;28;20499;-51
2021/04/19 11:29:54;;;;;;;8.03;5.73;;;13.20;96.90;;;;;;5049131;28;20460;-51
2021/04/19 11:32:32;;;;;;;9.37;6.93;;;13.70;96.80;;;;;;5052103;28;21097;-50
2021/04/19 11:34:59;;;;;;;10.50;7.00;;;14.10;93.40;;;;;;5036973;28;20452;-51
2021/04/19 11:37:31;;;;;;;8.57;6.53;;;13.90;95.90;;;;;;5043410;28;20483;-50
2021/04/19 11:39:58;;;;;;;10.50;6.37;;;13.80;95.60;;;;;;5043480;28;20467;-50
2021/04/19 11:42:29;;;;;;;10.60;6.83;;;13.40;96.70;;;;;;5042585;28;20478;-51
2021/04/19 11:44:56;;;;;;;7.63;5.97;;;13.80;94.30;;;;;;5046497;28;20518;-51
2021/04/19 11:47:23;;;;;;;8.70;5.90;;;13.80;94.30;;;;;;5043253;28;20479;-51
2021/04/19 11:49:51;;;;;;;9.67;6.20;;;13.50;93.70;;;;;;5045569;28;20482;-51
2021/04/19 11:52:18;;;;;;;8.87;6.17;;;13.40;94.40;;;;;;5042821;28;20488;-50
2021/04/19 11:54:45;;;;;;;6.63;4.93;;;13.30;95.20;;;;;;5046994;28;20467;-51
2021/04/19 11:57:11;;;;;;;6.70;4.70;;;13.60;95.20;;;;;;5046441;28;21043;-50
2021/04/19 11:59:40;;;;;;;7.93;5.53;;;13.70;94.00;;;;;;5041832;28;20961;-51
2021/04/19 12:02:07;;;;;;;7.60;5.60;;;13.90;93.90;;;;;;5046459;28;20451;-51
2021/04/19 12:04:34;;;;;;;7.87;5.87;;;13.90;94.00;;;;;;5042584;28;20514;-51
2021/04/19 12:07:01;;;;;;;7.73;6.00;;;14.10;95.70;;;;;;5043409;28;20492;-51
2021/04/19 12:09:30;;;;;;;6.80;5.60;;;14.40;92.90;;;;;;5042747;28;20484;-52
2021/04/19 12:11:56;;;;;;;5.97;5.07;;;14.40;92.30;;;;;;5043698;28;20526;-51
2021/04/19 12:14:24;;;;;;;6.00;5.40;;;14.90;90.40;;;;;;5043040;28;20463;-50
2021/04/19 12:16:51;;;;;;;7.20;5.30;;;15.20;92.70;;;;;;5041283;28;21013;-52
2021/04/19 12:19:19;;;;;;;7.87;5.70;;;15.20;90.30;;;;;;5041293;28;21145;-51
2021/04/19 12:21:46;;;;;;;6.87;5.53;;;14.80;92.50;;;;;;5042979;28;20490;-51
2021/04/19 12:24:12;;;;;;;7.73;5.23;;;14.20;94.40;;;;;;5045659;28;20521;-50
2021/04/19 12:26:39;;;;;;;7.57;5.73;;;14.10;95.40;;;;;;5045875;28;20483;-51
2021/04/19 12:29:08;;;;;;;8.43;6.40;;;14.50;93.90;;;;;;5046361;28;20459;-51
2021/04/19 12:31:34;;;;;;;8.03;5.27;;;14.00;94.00;;;;;;5046978;28;20479;-51
2021/04/19 12:34:01;;;;;;;7.03;5.77;;;14.20;95.00;;;;;;5050183;28;20853;-51
2021/04/19 12:36:31;;;;;;;8.43;5.60;;;14.10;92.90;;;;;;5049593;28;20494;-51
2021/04/19 12:39:05;;;;;;;8.47;5.10;;;14.30;89.90;;;;;;5049636;28;20490;-51
2021/04/19 12:41:32;;;;;;;6.17;5.23;;;14.70;93.70;;;;;;5050371;28;20448;-51
2021/04/19 12:43:59;;;;;;;9.30;5.47;;;14.60;92.80;;;;;;5050319;28;20451;-52
2021/04/19 12:46:27;;;;;;;8.37;5.50;;;14.90;93.70;;;;;;5049814;28;20534;-51